Terminal Aerodrome Forecast
Issued by NWS Houston/Galveston, TX

Home | Current Version | Previous Version | Text Only | Print | Product List | Glossary On
Versions: 1 2 3 4 5 6 7 8 9 10 11 12 13 14 15 16 17 18 19 20 21 22 23 24
000
FTUS44 KHGX 232340
TAFCLL
TAF
KCLL 232340Z 2400/2424 17016G24KT P6SM FEW025 SCT250
     FM240500 16015G20KT P6SM BKN015
     FM241000 18015KT P6SM OVC012
     FM241500 17015G25KT P6SM VCTS BKN025CB
     FM241700 18017G28KT P6SM -TSRA VCTS OVC030CB
      TEMPO 2420/2423 VRB35KT 3SM TSRA=

USA.gov is the U.S. government's official web portal to all federal, state and local government web resources and services.